createdAt,value
2023-02-19T00:00:28.574Z,0
2023-02-19T00:01:24.481Z,0
2023-02-19T00:02:09.537Z,0
2023-02-19T00:02:57.585Z,0
2023-02-19T00:03:49.539Z,0
2023-02-19T00:04:34.587Z,0
2023-02-19T00:05:18.728Z,0
2023-02-19T00:06:14.471Z,0
2023-02-19T00:07:01.793Z,0
2023-02-19T00:08:00.990Z,0
2023-02-19T00:08:48.392Z,0
2023-02-19T00:09:38.452Z,0
2023-02-19T00:10:24.628Z,0
2023-02-19T00:11:14.501Z,0
2023-02-19T00:12:08.475Z,0
2023-02-19T00:12:49.563Z,0
2023-02-19T00:13:36.459Z,0
2023-02-19T00:16:13.952Z,0
2023-02-19T00:16:54.467Z,0
2023-02-19T00:17:35.016Z,0
2023-02-19T00:18:15.568Z,0
2023-02-19T00:18:57.030Z,0
2023-02-19T00:19:37.538Z,0
2023-02-19T00:20:18.086Z,0
2023-02-19T00:23:34.383Z,0
2023-02-19T00:24:14.919Z,0
2023-02-19T00:24:56.125Z,0
2023-02-19T00:25:36.760Z,0
2023-02-19T00:26:18.871Z,0
2023-02-19T00:26:57.813Z,0
2023-02-19T00:27:38.355Z,0
2023-02-19T00:28:19.643Z,0
2023-02-19T00:30:58.085Z,0
2023-02-19T00:31:38.671Z,0
2023-02-19T00:32:19.157Z,0
2023-02-19T00:32:59.635Z,0
2023-02-19T00:33:40.144Z,0
2023-02-19T00:34:20.686Z,0
2023-02-19T00:35:01.219Z,0
2023-02-19T00:35:41.821Z,0
2023-02-19T00:36:22.318Z,0
2023-02-19T00:37:02.840Z,0
2023-02-19T00:43:48.140Z,0
2023-02-19T00:44:28.689Z,0
2023-02-19T00:45:09.207Z,0
2023-02-19T00:45:49.703Z,0
2023-02-19T00:46:30.323Z,0
2023-02-19T00:47:10.751Z,0
2023-02-19T00:47:51.274Z,0
2023-02-19T00:48:31.789Z,0
2023-02-19T00:49:13.083Z,0
2023-02-19T00:54:37.991Z,0
2023-02-19T00:55:19.104Z,0
2023-02-19T00:55:59.653Z,0
2023-02-19T00:56:40.156Z,0
2023-02-19T00:57:20.732Z,0
2023-02-19T00:58:01.201Z,0
2023-02-19T00:58:41.750Z,0
2023-02-19T00:59:22.257Z,0
2023-02-19T01:00:02.798Z,0
2023-02-19T01:07:25.123Z,0
2023-02-19T01:08:06.509Z,0
2023-02-19T01:08:47.105Z,0
2023-02-19T01:09:27.709Z,0
2023-02-19T01:10:08.296Z,0
2023-02-19T01:10:48.807Z,0
2023-02-19T01:11:29.358Z,0
2023-02-19T01:12:09.907Z,0
2023-02-19T01:17:35.081Z,0
2023-02-19T01:18:15.630Z,0
2023-02-19T01:18:56.189Z,0
2023-02-19T01:19:37.537Z,0
2023-02-19T01:20:18.054Z,0
2023-02-19T01:20:58.635Z,0
2023-02-19T01:21:39.203Z,0
2023-02-19T01:22:19.688Z,0
2023-02-19T01:23:00.199Z,0
2023-02-19T01:30:23.287Z,0
2023-02-19T01:31:03.924Z,0
2023-02-19T01:31:44.522Z,0
2023-02-19T01:32:24.995Z,0
2023-02-19T01:34:38.935Z,0
2023-02-19T01:35:19.472Z,0
2023-02-19T01:36:00.043Z,0
2023-02-19T01:36:40.554Z,0
2023-02-19T01:38:55.618Z,0
2023-02-19T01:39:36.147Z,0
2023-02-19T01:40:16.660Z,0
2023-02-19T01:40:57.162Z,0
2023-02-19T01:43:25.493Z,0
2023-02-19T01:44:06.056Z,0
2023-02-19T01:44:46.633Z,0
2023-02-19T01:45:27.212Z,0
2023-02-19T01:46:07.838Z,0
2023-02-19T01:46:48.639Z,0
2023-02-19T01:49:22.515Z,0
2023-02-19T01:50:03.029Z,0
2023-02-19T01:50:44.433Z,0
2023-02-19T01:51:25.946Z,0
2023-02-19T01:53:54.259Z,0
2023-02-19T01:54:34.780Z,0
2023-02-19T01:55:15.273Z,0
2023-02-19T01:55:55.801Z,0
2023-02-19T01:56:36.331Z,0
2023-02-19T01:57:16.836Z,0
2023-02-19T01:57:57.372Z,0
2023-02-19T01:58:37.880Z,0
2023-02-19T01:59:18.448Z,0
2023-02-19T01:59:58.946Z,0
2023-02-19T02:06:04.443Z,0
2023-02-19T02:06:44.961Z,0
2023-02-19T02:07:25.493Z,0
2023-02-19T02:08:06.111Z,0
2023-02-19T02:08:46.706Z,0
2023-02-19T02:09:27.214Z,0
2023-02-19T02:11:40.263Z,0
2023-02-19T02:12:20.767Z,0
2023-02-19T02:13:01.277Z,0
2023-02-19T02:13:42.518Z,0
2023-02-19T02:14:23.075Z,0
2023-02-19T02:15:03.580Z,0
2023-02-19T02:15:44.092Z,0
2023-02-19T02:16:24.670Z,0
2023-02-19T02:17:05.150Z,0
2023-02-19T02:23:50.393Z,0
2023-02-19T02:24:30.893Z,0
2023-02-19T02:25:11.407Z,0
2023-02-19T02:25:51.932Z,0
2023-02-19T02:26:32.574Z,0
2023-02-19T02:27:13.094Z,0
2023-02-19T02:27:53.612Z,0
2023-02-19T02:28:34.150Z,0
2023-02-19T02:30:53.437Z,0
2023-02-19T02:31:39.637Z,0
2023-02-19T02:32:23.432Z,0
2023-02-19T02:33:11.496Z,0
2023-02-19T02:33:57.647Z,0
2023-02-19T02:34:38.917Z,0
2023-02-19T02:35:21.403Z,0
2023-02-19T02:36:02.710Z,0
2023-02-19T02:36:43.829Z,0
2023-02-19T02:37:25.283Z,0
2023-02-19T02:38:07.507Z,0
2023-02-19T02:39:34.980Z,0
2023-02-19T02:40:17.442Z,0
2023-02-19T02:42:23.922Z,0
2023-02-19T02:43:07.957Z,0
2023-02-19T02:45:12.642Z,0
2023-02-19T02:45:53.240Z,0
2023-02-19T02:46:34.627Z,0
2023-02-19T02:47:16.007Z,0
2023-02-19T02:47:57.224Z,0
2023-02-19T02:48:40.414Z,0
2023-02-19T02:49:24.409Z,0
2023-02-19T02:50:06.532Z,0
2023-02-19T02:50:49.007Z,0
2023-02-19T02:52:12.759Z,0
2023-02-19T02:52:55.210Z,0
2023-02-19T02:53:38.897Z,0
2023-02-19T02:55:47.494Z,0
2023-02-19T02:57:53.004Z,0
2023-02-19T02:58:36.475Z,0
2023-02-19T02:59:18.934Z,0
2023-02-19T03:00:42.744Z,0
2023-02-19T03:01:25.253Z,0
2023-02-19T03:02:08.916Z,0
2023-02-19T03:02:54.001Z,0
2023-02-19T03:03:35.264Z,0
2023-02-19T03:04:16.915Z,0
2023-02-19T03:04:57.391Z,0
2023-02-19T03:05:44.504Z,0
2023-02-19T03:06:30.888Z,0
2023-02-19T03:07:13.127Z,0
2023-02-19T03:07:53.625Z,0
2023-02-19T03:08:37.873Z,0
2023-02-19T03:10:05.016Z,0
2023-02-19T03:10:45.605Z,0
2023-02-19T03:11:26.114Z,0
2023-02-19T03:12:21.208Z,0
2023-02-19T03:13:05.904Z,0
2023-02-19T03:13:51.001Z,0
2023-02-19T03:14:36.990Z,0
2023-02-19T03:15:19.977Z,0
2023-02-19T03:16:45.524Z,0
2023-02-19T03:17:26.046Z,0
2023-02-19T03:18:08.513Z,0
2023-02-19T03:20:14.054Z,0
2023-02-19T03:20:57.916Z,0
2023-02-19T03:21:49.425Z,0
2023-02-19T03:23:12.831Z,0
2023-02-19T03:23:53.379Z,0
2023-02-19T03:24:33.871Z,0
2023-02-19T03:25:14.387Z,0
2023-02-19T03:25:58.415Z,0
2023-02-19T03:27:23.930Z,0
2023-02-19T03:28:08.909Z,0
2023-02-19T03:29:35.412Z,0
2023-02-19T03:30:21.623Z,0
2023-02-19T03:31:44.286Z,0
2023-02-19T03:32:25.536Z,0
2023-02-19T03:33:07.900Z,0
2023-02-19T03:35:52.656Z,0
2023-02-19T03:36:33.240Z,0
2023-02-19T03:37:15.999Z,0
2023-02-19T03:37:57.912Z,0
2023-02-19T03:40:05.017Z,0
2023-02-19T03:40:45.556Z,0
2023-02-19T03:41:28.628Z,0
2023-02-19T03:43:42.611Z,0
2023-02-19T03:44:23.163Z,0
2023-02-19T03:45:03.669Z,0
2023-02-19T03:45:45.534Z,0
2023-02-19T03:46:26.861Z,0
2023-02-19T03:47:10.908Z,0
2023-02-19T03:47:53.285Z,0
2023-02-19T03:48:34.420Z,0
2023-02-19T03:49:14.909Z,0
2023-02-19T03:49:55.456Z,0
2023-02-19T03:50:39.384Z,0
2023-02-19T03:52:43.392Z,0
2023-02-19T03:53:24.860Z,0
2023-02-19T03:54:07.160Z,0
2023-02-19T03:54:48.639Z,0
2023-02-19T03:56:12.806Z,0
2023-02-19T03:56:58.026Z,0
2023-02-19T03:57:43.044Z,0
2023-02-19T03:58:32.133Z,0
2023-02-19T03:59:21.006Z,0
2023-02-19T04:00:05.016Z,0
2023-02-19T04:00:48.012Z,0
2023-02-19T04:02:57.399Z,0
2023-02-19T04:05:04.945Z,0
2023-02-19T04:05:52.172Z,0
2023-02-19T04:06:35.916Z,0
2023-02-19T04:07:24.163Z,0
2023-02-19T04:08:07.940Z,0
2023-02-19T04:09:35.947Z,0
2023-02-19T04:10:18.957Z,0
2023-02-19T04:11:44.251Z,0
2023-02-19T04:12:28.540Z,0
2023-02-19T04:15:23.905Z,0
2023-02-19T04:16:05.331Z,0
2023-02-19T04:16:46.448Z,0
2023-02-19T04:18:55.115Z,0
2023-02-19T04:19:38.902Z,0
2023-02-19T04:21:04.916Z,0
2023-02-19T04:21:46.941Z,0
2023-02-19T04:22:29.194Z,0
2023-02-19T04:23:13.019Z,0
2023-02-19T04:23:54.905Z,0
2023-02-19T04:24:35.442Z,0
2023-02-19T04:25:20.449Z,0
2023-02-19T04:26:03.441Z,0
2023-02-19T04:26:45.632Z,0
2023-02-19T04:27:39.570Z,0
2023-02-19T04:29:03.974Z,0
2023-02-19T04:29:47.150Z,0
2023-02-19T04:30:34.667Z,0
2023-02-19T04:31:16.748Z,0
2023-02-19T04:32:44.436Z,0
2023-02-19T04:33:25.991Z,0
2023-02-19T04:34:07.195Z,0
2023-02-19T04:34:49.017Z,0
2023-02-19T04:36:12.557Z,0
2023-02-19T04:37:43.410Z,0
2023-02-19T04:38:25.428Z,0
2023-02-19T04:39:06.522Z,0
2023-02-19T04:39:55.668Z,0
2023-02-19T04:40:42.505Z,0
2023-02-19T04:41:24.736Z,0
2023-02-19T04:42:10.166Z,0
2023-02-19T04:43:37.142Z,0
2023-02-19T04:44:19.473Z,0
2023-02-19T04:45:42.738Z,0
2023-02-19T04:46:27.500Z,0
2023-02-19T04:48:33.160Z,0
2023-02-19T04:49:18.039Z,0
2023-02-19T04:50:44.491Z,0
2023-02-19T04:51:27.566Z,0
2023-02-19T04:54:12.443Z,0
2023-02-19T04:54:52.937Z,0
2023-02-19T04:55:34.335Z,0
2023-02-19T04:56:15.965Z,0
2023-02-19T04:56:57.235Z,0
2023-02-19T04:59:51.040Z,0
2023-02-19T05:00:33.170Z,0
2023-02-19T05:01:19.045Z,0
2023-02-19T05:02:42.510Z,0
2023-02-19T05:03:24.434Z,0
2023-02-19T05:04:06.572Z,0
2023-02-19T05:04:46.968Z,0
2023-02-19T05:06:57.520Z,0
2023-02-19T05:09:02.918Z,0
2023-02-19T05:09:43.513Z,0
2023-02-19T05:10:24.553Z,0
2023-02-19T05:11:05.060Z,0
2023-02-19T05:11:48.150Z,0
2023-02-19T05:13:13.669Z,0
2023-02-19T05:13:54.150Z,0
2023-02-19T05:14:35.314Z,0
2023-02-19T05:15:16.659Z,0
2023-02-19T05:16:00.728Z,0
2023-02-19T05:16:43.492Z,0
2023-02-19T05:17:25.050Z,0
2023-02-19T05:18:06.169Z,0
2023-02-19T05:18:47.653Z,0
2023-02-19T05:20:12.525Z,0
2023-02-19T05:20:57.695Z,0
2023-02-19T05:23:03.579Z,0
2023-02-19T05:23:46.442Z,0
2023-02-19T05:24:29.419Z,0
2023-02-19T05:25:15.433Z,0
2023-02-19T05:25:56.867Z,0
2023-02-19T05:26:38.367Z,0
2023-02-19T05:28:06.084Z,0
2023-02-19T05:28:53.952Z,0
2023-02-19T05:29:39.979Z,0
2023-02-19T05:30:22.551Z,0
2023-02-19T05:31:05.017Z,0
2023-02-19T05:31:47.239Z,0
2023-02-19T05:32:27.738Z,0
2023-02-19T05:33:13.486Z,0
2023-02-19T05:33:55.677Z,0
2023-02-19T05:34:36.231Z,0
2023-02-19T05:35:20.163Z,0
2023-02-19T05:36:02.716Z,0
2023-02-19T05:36:46.669Z,0
2023-02-19T05:37:29.950Z,0
2023-02-19T05:38:13.004Z,0
2023-02-19T05:38:54.278Z,0
2023-02-19T05:39:39.950Z,0
2023-02-19T05:40:23.937Z,0
2023-02-19T05:41:06.944Z,0
2023-02-19T05:41:47.532Z,0
2023-02-19T05:42:33.466Z,0
2023-02-19T05:43:18.565Z,0
2023-02-19T05:45:25.960Z,0
2023-02-19T05:46:09.978Z,0
2023-02-19T05:46:52.484Z,0
2023-02-19T05:47:32.968Z,0
2023-02-19T05:48:16.930Z,0
2023-02-19T05:49:02.021Z,0
2023-02-19T05:49:46.062Z,0
2023-02-19T05:50:28.046Z,0
2023-02-19T05:51:15.965Z,0
2023-02-19T05:51:57.365Z,0
2023-02-19T05:53:22.438Z,0
2023-02-19T05:54:03.660Z,0
2023-02-19T05:54:47.023Z,0
2023-02-19T05:56:53.946Z,0
2023-02-19T05:57:36.287Z,0
2023-02-19T05:58:17.456Z,0
2023-02-19T06:00:23.972Z,0
2023-02-19T06:01:05.958Z,0
2023-02-19T06:01:46.457Z,0
2023-02-19T06:03:56.056Z,4
2023-02-19T06:04:33.981Z,4
2023-02-19T06:05:15.252Z,4
2023-02-19T06:05:55.803Z,4
2023-02-19T06:06:37.847Z,4
2023-02-19T06:08:02.470Z,8
2023-02-19T06:08:47.588Z,4
2023-02-19T06:11:34.661Z,8
2023-02-19T06:12:17.569Z,12
2023-02-19T06:15:43.290Z,20
2023-02-19T06:16:24.466Z,24
2023-02-19T06:17:07.692Z,28
2023-02-19T06:19:13.481Z,40
2023-02-19T06:19:54.819Z,40
2023-02-19T06:20:43.958Z,44
2023-02-19T06:21:32.981Z,52
2023-02-19T06:22:16.201Z,56
2023-02-19T06:22:59.460Z,64
2023-02-19T06:23:42.470Z,72
2023-02-19T06:24:23.002Z,76
2023-02-19T06:25:07.199Z,84
2023-02-19T06:25:48.441Z,92
2023-02-19T06:27:53.794Z,88
2023-02-19T06:28:34.357Z,108
2023-02-19T06:29:15.681Z,116
2023-02-19T06:29:58.549Z,124
2023-02-19T06:30:42.508Z,136
2023-02-19T06:31:23.215Z,156
2023-02-19T06:32:05.984Z,144
2023-02-19T06:32:46.527Z,156
2023-02-19T06:34:54.181Z,208
2023-02-19T06:35:38.979Z,212
2023-02-19T06:37:43.493Z,208
2023-02-19T06:38:26.738Z,216
2023-02-19T06:39:53.780Z,248
2023-02-19T06:40:35.961Z,268
2023-02-19T06:42:43.078Z,244
2023-02-19T06:43:23.603Z,232
2023-02-19T06:44:04.184Z,208
2023-02-19T06:44:47.233Z,196
2023-02-19T06:45:28.433Z,240
2023-02-19T06:46:52.765Z,268
2023-02-19T06:47:34.718Z,304
2023-02-19T06:48:16.089Z,332
2023-02-19T06:48:56.615Z,356
2023-02-19T06:49:42.901Z,360
2023-02-19T06:50:23.349Z,368
2023-02-19T06:51:05.540Z,388
2023-02-19T06:51:46.186Z,412
2023-02-19T06:52:28.227Z,436
2023-02-19T06:56:00.147Z,472
2023-02-19T06:57:23.542Z,472
2023-02-19T06:58:05.791Z,464
2023-02-19T06:58:46.854Z,460
2023-02-19T06:59:27.432Z,460
2023-02-19T07:00:55.717Z,552
2023-02-19T07:01:37.104Z,576
2023-02-19T07:02:18.281Z,584
2023-02-19T07:05:06.094Z,640
2023-02-19T07:05:46.590Z,688
2023-02-19T07:06:28.778Z,724
2023-02-19T07:07:13.022Z,772
2023-02-19T07:07:57.257Z,812
2023-02-19T07:08:38.474Z,972
2023-02-19T07:10:45.505Z,880
2023-02-19T07:11:26.943Z,852
2023-02-19T07:12:13.097Z,800
2023-02-19T07:12:53.649Z,828
2023-02-19T07:13:35.765Z,860
2023-02-19T07:14:17.950Z,884
2023-02-19T07:16:23.551Z,1020
2023-02-19T07:17:05.467Z,992
2023-02-19T07:17:50.619Z,972
2023-02-19T07:18:34.460Z,1024
2023-02-19T07:19:15.711Z,1140
2023-02-19T07:19:59.223Z,1168
2023-02-19T07:22:04.791Z,1184
2023-02-19T07:22:45.800Z,1168
2023-02-19T07:23:26.953Z,1228
2023-02-19T07:24:07.444Z,1300
2023-02-19T07:26:15.347Z,1468
2023-02-19T07:26:58.455Z,1412
2023-02-19T07:29:04.964Z,1168
2023-02-19T07:29:46.093Z,1208
2023-02-19T07:30:28.014Z,1300
2023-02-19T07:32:34.490Z,1428
2023-02-19T07:33:17.554Z,1272
2023-02-19T07:35:56.212Z,1484
2023-02-19T07:36:36.763Z,1744
2023-02-19T07:37:17.293Z,1968
2023-02-19T07:37:57.785Z,2040
2023-02-19T07:38:38.466Z,1960
2023-02-19T07:39:19.023Z,1808
2023-02-19T07:41:48.993Z,1672
2023-02-19T07:42:33.073Z,1608
2023-02-19T07:43:14.188Z,1548
2023-02-19T07:43:54.699Z,1572
2023-02-19T07:44:36.689Z,1696
2023-02-19T07:45:19.075Z,1764
2023-02-19T07:46:44.570Z,1788
2023-02-19T07:47:26.026Z,1720
2023-02-19T07:48:07.344Z,1748
2023-02-19T07:50:16.005Z,1912
2023-02-19T07:50:57.865Z,1976
2023-02-19T07:51:43.911Z,2080
2023-02-19T07:52:24.424Z,2180
2023-02-19T07:53:04.892Z,2252
2023-02-19T07:53:48.320Z,2312
2023-02-19T07:55:58.366Z,2480
2023-02-19T07:56:38.916Z,2396
2023-02-19T07:58:45.293Z,2444
2023-02-19T07:59:27.596Z,2432
2023-02-19T08:00:12.343Z,2344
2023-02-19T08:00:54.407Z,2316
2023-02-19T08:01:37.728Z,2352
2023-02-19T08:04:24.541Z,2088
2023-02-19T08:05:05.674Z,2088
2023-02-19T08:05:48.523Z,2084
2023-02-19T08:06:34.706Z,2084
2023-02-19T08:07:19.338Z,2004
2023-02-19T08:08:46.582Z,1808
2023-02-19T08:09:28.938Z,1780
2023-02-19T08:11:36.377Z,1808
2023-02-19T08:12:17.873Z,1680
2023-02-19T08:13:44.429Z,1944
2023-02-19T08:14:33.259Z,1992
2023-02-19T08:15:17.390Z,2044
2023-02-19T08:16:07.584Z,2176
2023-02-19T08:16:43.138Z,2312
2023-02-19T08:17:24.174Z,2484
2023-02-19T08:18:08.057Z,2704
2023-02-19T08:18:53.890Z,2920
2023-02-19T08:19:35.912Z,3080
2023-02-19T08:20:19.379Z,3160
2023-02-19T08:22:26.324Z,3684
2023-02-19T08:23:07.692Z,3828
2023-02-19T08:23:50.642Z,3904
2023-02-19T08:24:28.724Z,3980
2023-02-19T08:25:54.329Z,4304
2023-02-19T08:26:42.532Z,4232
2023-02-19T08:27:30.428Z,4096
2023-02-19T08:28:54.825Z,4060
2023-02-19T08:29:36.831Z,4112
2023-02-19T08:30:18.934Z,4156
2023-02-19T08:32:29.325Z,4420
2023-02-19T08:33:58.320Z,4552
2023-02-19T08:34:44.338Z,4528
2023-02-19T08:35:25.562Z,4528
2023-02-19T08:36:06.793Z,4524
2023-02-19T08:37:35.813Z,4576
2023-02-19T08:38:17.844Z,4636
2023-02-19T08:39:00.026Z,4672
2023-02-19T08:40:26.312Z,4688
2023-02-19T08:41:06.801Z,4668
2023-02-19T08:41:52.837Z,4620
2023-02-19T08:42:36.776Z,4544
2023-02-19T08:43:21.017Z,4584
2023-02-19T08:45:25.321Z,4412
2023-02-19T08:46:06.503Z,4296
2023-02-19T08:46:49.293Z,4236
2023-02-19T08:48:54.884Z,4452
2023-02-19T08:51:13.012Z,4824
2023-02-19T08:51:54.939Z,5124
2023-02-19T08:52:35.490Z,5352
2023-02-19T08:55:21.054Z,6140
2023-02-19T08:56:05.075Z,6468
2023-02-19T08:56:48.184Z,6820
2023-02-19T08:57:30.126Z,7164
2023-02-19T08:58:10.635Z,7340
2023-02-19T08:58:51.179Z,7388
2023-02-19T08:59:32.659Z,7220
2023-02-19T09:00:14.633Z,7088
2023-02-19T09:01:44.351Z,7436
2023-02-19T09:02:26.070Z,7724
2023-02-19T09:03:51.358Z,7452
2023-02-19T09:04:34.123Z,7240
2023-02-19T09:05:17.063Z,6944
2023-02-19T09:06:41.297Z,6576
2023-02-19T09:07:24.045Z,6436
2023-02-19T09:08:07.327Z,6260
2023-02-19T09:09:30.158Z,5896
2023-02-19T09:10:10.696Z,5608
2023-02-19T09:10:51.826Z,5420
2023-02-19T09:11:41.669Z,5356
2023-02-19T09:12:22.199Z,5352
2023-02-19T09:13:09.392Z,5500
2023-02-19T09:13:52.600Z,5820
2023-02-19T09:14:33.107Z,6284
2023-02-19T09:15:15.061Z,6484
2023-02-19T09:16:03.062Z,6688
2023-02-19T09:16:47.058Z,6972
2023-02-19T09:17:32.160Z,7144
2023-02-19T09:18:13.370Z,7212
2023-02-19T09:18:56.962Z,7132
2023-02-19T09:20:30.534Z,6824
2023-02-19T09:21:15.798Z,6848
2023-02-19T09:22:40.891Z,7044
2023-02-19T09:23:21.407Z,7132
2023-02-19T09:24:02.768Z,7092
2023-02-19T09:24:45.284Z,7084
2023-02-19T09:26:54.047Z,7020
2023-02-19T09:27:34.637Z,7024
2023-02-19T09:28:16.831Z,7000
2023-02-19T09:29:40.433Z,6436
2023-02-19T09:30:21.493Z,6000
2023-02-19T09:31:03.628Z,5660
2023-02-19T09:31:46.711Z,5436
2023-02-19T09:33:10.154Z,5704
2023-02-19T09:33:52.300Z,5840
2023-02-19T09:34:37.086Z,5984
2023-02-19T09:35:21.086Z,6236
2023-02-19T09:36:04.055Z,6276
2023-02-19T09:36:44.582Z,6884
2023-02-19T09:37:25.652Z,8164
2023-02-19T09:38:53.456Z,9380
2023-02-19T09:39:34.636Z,8716
2023-02-19T09:40:17.110Z,8152
2023-02-19T09:41:47.100Z,7236
2023-02-19T09:43:55.558Z,5944
2023-02-19T09:46:01.092Z,5416
2023-02-19T09:46:53.206Z,5448
2023-02-19T09:47:33.806Z,5320
2023-02-19T09:48:14.355Z,5012
2023-02-19T09:48:56.651Z,4636
2023-02-19T09:50:23.075Z,4344
2023-02-19T09:53:06.736Z,4824
2023-02-19T09:53:47.271Z,5296
2023-02-19T09:54:27.797Z,5872
2023-02-19T09:55:08.314Z,6428
2023-02-19T09:55:48.851Z,6588
2023-02-19T09:56:29.404Z,6552
2023-02-19T09:58:46.376Z,5596
2023-02-19T09:59:30.113Z,5104
2023-02-19T10:00:13.722Z,4616
2023-02-19T10:00:55.077Z,4232
2023-02-19T10:01:39.216Z,4072
2023-02-19T10:02:23.256Z,3996
2023-02-19T10:03:04.350Z,4056
2023-02-19T10:03:47.177Z,4260
2023-02-19T10:04:27.651Z,4480
2023-02-19T10:05:08.775Z,4876
2023-02-19T10:05:49.294Z,5488
2023-02-19T10:07:55.762Z,7544
2023-02-19T10:08:41.743Z,7940
2023-02-19T10:09:27.658Z,8012
2023-02-19T10:10:08.166Z,7952
2023-02-19T10:10:51.135Z,7912
2023-02-19T10:11:34.135Z,7668
2023-02-19T10:12:16.371Z,7440
2023-02-19T10:13:01.162Z,7676
2023-02-19T10:13:45.153Z,7892
2023-02-19T10:14:32.204Z,7364
2023-02-19T10:15:58.673Z,6536
2023-02-19T10:16:43.661Z,6112
2023-02-19T10:17:25.106Z,5692
2023-02-19T10:18:18.360Z,5480
2023-02-19T10:19:03.325Z,5868
2023-02-19T10:19:49.244Z,6532
2023-02-19T10:21:14.389Z,7800
2023-02-19T10:21:56.515Z,8160
2023-02-19T10:22:39.384Z,8196
2023-02-19T10:25:26.915Z,8108
2023-02-19T10:26:09.029Z,8068
2023-02-19T10:27:34.300Z,8508
2023-02-19T10:28:14.851Z,8672
2023-02-19T10:28:55.387Z,8620
2023-02-19T10:29:36.509Z,8200
2023-02-19T10:30:25.684Z,7808
2023-02-19T10:31:06.218Z,7568
2023-02-19T10:31:49.274Z,7364
2023-02-19T10:33:55.679Z,7160
2023-02-19T10:34:38.631Z,7580
2023-02-19T10:35:20.718Z,8200
2023-02-19T10:37:24.678Z,10024
2023-02-19T10:38:08.655Z,10572
2023-02-19T10:39:34.263Z,11240
2023-02-19T10:40:15.391Z,11168
2023-02-19T10:40:55.872Z,10696
2023-02-19T10:41:42.498Z,10204
2023-02-19T10:43:45.254Z,9660
2023-02-19T10:44:27.325Z,9556
2023-02-19T10:45:08.606Z,9448
2023-02-19T10:45:58.682Z,9560
2023-02-19T10:46:40.180Z,9756
2023-02-19T10:48:04.789Z,9820
2023-02-19T10:48:46.006Z,9880
2023-02-19T10:49:27.066Z,9944
2023-02-19T10:50:12.188Z,9812
2023-02-19T10:50:54.620Z,9724
2023-02-19T10:51:35.779Z,9724
2023-02-19T10:52:17.871Z,9648
2023-02-19T10:52:58.793Z,9220
2023-02-19T10:53:45.687Z,8656
2023-02-19T10:54:26.911Z,8092
2023-02-19T10:55:07.504Z,7752
2023-02-19T10:55:48.022Z,7520
2023-02-19T10:56:33.692Z,7496
2023-02-19T10:57:17.855Z,7748
2023-02-19T10:58:00.769Z,8052
2023-02-19T10:59:24.121Z,8828
2023-02-19T11:00:20.177Z,9096
2023-02-19T11:01:06.003Z,9228
2023-02-19T11:01:52.251Z,9432
2023-02-19T11:02:34.431Z,9440
2023-02-19T11:03:15.071Z,9384
2023-02-19T11:03:55.694Z,9116
2023-02-19T11:04:37.062Z,8716
2023-02-19T11:05:17.504Z,8860
2023-02-19T11:06:01.801Z,8984
2023-02-19T11:07:24.422Z,10024
2023-02-19T11:08:06.715Z,10700
2023-02-19T11:08:47.888Z,11304
2023-02-19T11:09:31.438Z,11540
2023-02-19T11:11:34.904Z,10644
2023-02-19T11:12:16.778Z,10868
2023-02-19T11:12:58.872Z,10644
2023-02-19T11:13:42.153Z,10328
2023-02-19T11:14:25.500Z,10224
2023-02-19T11:15:06.772Z,10348
2023-02-19T11:15:48.318Z,10548
2023-02-19T11:16:29.433Z,10500
2023-02-19T11:17:54.265Z,10616
2023-02-19T11:18:35.514Z,10992
2023-02-19T11:19:17.964Z,11444
2023-02-19T11:19:58.553Z,12104
2023-02-19T11:20:39.676Z,13120
2023-02-19T11:21:27.911Z,13036
2023-02-19T11:22:09.170Z,15100
2023-02-19T11:24:14.574Z,20320
2023-02-19T11:24:57.886Z,15928
2023-02-19T11:25:37.041Z,16216
2023-02-19T11:26:19.537Z,16948
2023-02-19T11:28:26.678Z,16564
2023-02-19T11:29:08.985Z,15792
2023-02-19T11:29:50.180Z,15068
2023-02-19T11:32:35.249Z,12100
2023-02-19T11:33:15.761Z,11900
2023-02-19T11:33:58.899Z,10908
2023-02-19T11:34:40.894Z,9844
2023-02-19T11:35:24.167Z,9872
2023-02-19T11:36:04.666Z,10604
2023-02-19T11:36:46.719Z,9572
2023-02-19T11:37:28.085Z,8708
2023-02-19T11:38:09.387Z,9180
2023-02-19T11:40:16.265Z,10152
2023-02-19T11:40:56.819Z,10112
2023-02-19T11:41:39.006Z,9712
2023-02-19T11:44:29.397Z,9152
2023-02-19T11:47:14.787Z,9112
2023-02-19T11:47:56.207Z,8936
2023-02-19T11:48:39.671Z,9076
2023-02-19T11:50:44.775Z,9008
2023-02-19T11:51:27.555Z,9272
2023-02-19T11:52:11.285Z,8884
2023-02-19T11:53:34.819Z,8744
2023-02-19T11:54:15.306Z,8464
2023-02-19T11:54:57.275Z,8148
2023-02-19T11:55:37.785Z,8308
2023-02-19T11:56:19.674Z,8472
2023-02-19T11:58:24.196Z,9284
2023-02-19T11:59:05.463Z,9404
2023-02-19T11:59:46.613Z,9836
2023-02-19T12:00:29.917Z,9308
2023-02-19T12:03:18.010Z,9068
2023-02-19T12:04:00.210Z,9196
2023-02-19T12:05:24.796Z,9716
2023-02-19T12:06:05.288Z,9848
2023-02-19T12:06:51.276Z,9608
2023-02-19T12:08:14.211Z,9964
2023-02-19T12:08:55.602Z,9764
2023-02-19T12:09:36.132Z,9432
2023-02-19T12:10:18.542Z,9568
2023-02-19T12:10:59.079Z,9684
2023-02-19T12:13:44.141Z,9700
2023-02-19T12:14:25.606Z,9420
2023-02-19T12:15:06.121Z,8720
2023-02-19T12:15:49.196Z,8260
2023-02-19T12:18:35.797Z,7560
2023-02-19T12:19:17.220Z,7412
2023-02-19T12:19:58.184Z,6788
2023-02-19T12:20:39.445Z,6248
2023-02-19T12:22:04.429Z,6480
2023-02-19T12:22:49.549Z,6832
2023-02-19T12:24:56.263Z,7608
2023-02-19T12:25:39.289Z,8584
2023-02-19T12:27:04.716Z,8164
2023-02-19T12:27:48.963Z,8088
2023-02-19T12:28:32.275Z,8148
2023-02-19T12:29:16.206Z,8464
2023-02-19T12:30:01.573Z,9408
2023-02-19T12:32:06.450Z,11256
2023-02-19T12:32:47.725Z,11612
2023-02-19T12:33:30.218Z,11340
2023-02-19T12:35:34.427Z,10060
2023-02-19T12:36:17.888Z,8832
2023-02-19T12:36:59.815Z,8992
2023-02-19T12:39:05.495Z,7356
2023-02-19T12:39:47.304Z,7016
2023-02-19T12:40:29.799Z,6748
2023-02-19T12:42:36.256Z,6824
2023-02-19T12:43:16.722Z,7920
2023-02-19T12:46:46.437Z,7880
2023-02-19T12:47:27.692Z,7912
2023-02-19T12:48:10.714Z,8200
2023-02-19T12:49:35.291Z,7576
2023-02-19T12:50:16.650Z,6744
2023-02-19T12:50:57.970Z,6144
2023-02-19T12:51:41.944Z,5552
2023-02-19T12:52:28.253Z,5284
2023-02-19T12:54:36.449Z,6268
2023-02-19T12:55:17.747Z,6288
2023-02-19T12:56:01.038Z,6732
2023-02-19T12:56:44.253Z,7320
2023-02-19T12:57:26.449Z,8076
2023-02-19T12:58:10.332Z,8568
2023-02-19T12:59:40.223Z,8416
2023-02-19T13:01:44.288Z,8596
2023-02-19T13:02:26.663Z,9004
2023-02-19T13:03:07.020Z,9272
2023-02-19T13:03:49.942Z,9476
2023-02-19T13:05:14.320Z,9936
2023-02-19T13:05:58.243Z,10248
2023-02-19T13:09:25.141Z,10680
2023-02-19T13:10:06.568Z,10728
2023-02-19T13:10:49.585Z,10940
2023-02-19T13:12:54.254Z,11768
2023-02-19T13:13:35.718Z,11900
2023-02-19T13:14:16.331Z,11952
2023-02-19T13:14:58.217Z,11892
2023-02-19T13:15:41.732Z,11748
2023-02-19T13:17:47.327Z,11668
2023-02-19T13:18:28.642Z,11912
2023-02-19T13:19:09.245Z,12164
2023-02-19T13:20:34.598Z,12132
2023-02-19T13:21:16.820Z,12008
2023-02-19T13:21:57.432Z,12060
2023-02-19T13:22:37.942Z,12068
2023-02-19T13:23:18.526Z,12152
2023-02-19T13:24:45.283Z,11680
2023-02-19T13:25:26.738Z,11376
2023-02-19T13:26:10.126Z,10896
2023-02-19T13:26:55.212Z,10336
2023-02-19T13:27:35.756Z,9936
2023-02-19T13:28:17.248Z,9640
2023-02-19T13:28:57.790Z,9372
2023-02-19T13:29:39.965Z,9200
2023-02-19T13:30:24.253Z,8980
2023-02-19T13:31:06.884Z,8676
2023-02-19T13:31:47.532Z,8448
2023-02-19T13:32:28.935Z,8344
2023-02-19T13:33:10.709Z,8240
2023-02-19T13:34:35.149Z,8000
2023-02-19T13:35:17.483Z,7932
2023-02-19T13:36:01.215Z,7828
2023-02-19T13:37:25.241Z,7808
2023-02-19T13:38:56.229Z,8192
2023-02-19T13:39:37.550Z,8356
2023-02-19T13:40:18.173Z,8440
2023-02-19T13:40:59.155Z,8512
2023-02-19T13:44:26.172Z,8476
2023-02-19T13:45:09.278Z,8280
2023-02-19T13:45:54.236Z,8180
2023-02-19T13:46:40.202Z,8100
2023-02-19T13:48:04.173Z,8168
2023-02-19T13:48:44.714Z,8100
2023-02-19T13:49:26.075Z,7980
2023-02-19T13:50:11.340Z,7712
2023-02-19T13:52:17.824Z,6956
2023-02-19T13:52:59.751Z,6784
2023-02-19T13:55:45.484Z,6536
2023-02-19T13:56:26.028Z,6408
2023-02-19T13:57:08.837Z,6264
2023-02-19T13:58:37.866Z,6268
2023-02-19T13:59:19.714Z,6364
2023-02-19T14:00:44.508Z,6544
2023-02-19T14:01:26.603Z,6492
2023-02-19T14:02:07.129Z,6372
2023-02-19T14:02:47.620Z,6184
2023-02-19T14:03:28.858Z,5968
2023-02-19T14:04:10.116Z,5724
2023-02-19T14:04:54.323Z,5452